Qiryat Bialik, Israel
Current Conditions -  °F | °C
As of 7:50 PM on Friday 21 Nov 2014 (Local Time) from LLHA Reporting Station
Scattered Clouds Scattered Clouds  
Wind Chill: 70°   Ceiling: Unl
Heat Index: 70°   Visibility: 6mi
Dew Point: 50°   Wind: 9mph
Humidity: 49%   Direction: 280°W
Pressure: 29.88"   Gusts: 21mph
Location:  32.83°N, 35.08°E
Report Text: LLHA 211650Z 28008G18KT 250V320 9999 SCT030 21/10 Q1012
Loading
Personal Weather Stations






























Interactive Weather Map New forecast layout! Learn more

10-Day Weather Forecast

Advertisements
Track Severe Weather on mobile